AirNav   Everest Fuels
 
 477 users online  

2FA2 Monroe Airpark
Belleview, Florida, USA

GOING TO BELLEVIEW?


FAA INFORMATION EFFECTIVE 07 OCTOBER 2021

Location

FAA Identifier: 2FA2
Lat/Long: 29-01-07.9290N 082-06-49.3220W
29-01.132150N 082-06.822033W
29.0188692,-82.1137006
(estimated)
Elevation: 75 ft. / 22.9 m (surveyed)
Variation: 02W (1985)
From city: 3 miles SW of BELLEVIEW, FL
Time zone: UTC -4 (UTC -5 during Standard Time)
Zip code: 34491

Airport Operations

Airport use: Private use. Permission required prior to landing
Activation date: 05/1976
Control tower: no
ARTCC: JACKSONVILLE CENTER
FSS: GAINESVILLE FLIGHT SERVICE STATION
Attendance: UNATNDD
Wind indicator: yes
Segmented circle: no

Airport Communications

WX AWOS-3PT at OCF (11 nm NW): 128.125 (352-237-8525)
WX AWOS-3 at INF (17 nm SW): 119.975 (352-560-6012)
WX ASOS at LEE (20 nm SE): PHONE 352-787-1565

Nearby radio navigation aids

VOR radial/distance  VOR name  Freq  Var
OCFr148/11.2OCALA VORTAC113.7000E

Airport Services

Runway Information

Runway 9/27

Dimensions: 4000 x 65 ft. / 1219 x 20 m
Surface: turf
RUNWAY 9  RUNWAY 27
Traffic pattern: leftleft
Displaced threshold: no500 ft.

Airport Ownership and Management from official FAA records

Ownership: Privately-owned
Owner: DENNIS MONROE
1770 S.E. 140TH STREET
SUMMERFIELD, FL 34491
Phone 352-347-7017
Manager: DENNIS MONROE
1770 S.E. 140TH STREET
SUMMBERFIELD, FL 34491
Phone 352-347-7017

Airport Operational Statistics

Aircraft based on the field: 5
Single engine airplanes: 5
    

Additional Remarks

FOR CD CTC JACKSONVILLE APCH AT 904-741-0284.

Instrument Procedures

There are no published instrument procedures at 2FA2.

Some nearby airports with instrument procedures:

KOCF - Ocala International Airport-Jim Taylor Field (11 nm NW)
X35 - Marion County Airport (14 nm W)
KINF - Inverness Airport (17 nm SW)
KLEE - Leesburg International Airport (20 nm SE)
X23 - Umatilla Municipal Airport (25 nm E)
 
Loc | Ops | Rwys | IFR | FBO | Links
Com | Nav | Svcs | Stats | Notes


 
Area around 2FA2 (Monroe Airpark)
 
Road maps at: MapQuest Bing Google
 
Aerial photo
No photo
 
Sectional chart

 
Airport distance calculator
Flying to Monroe Airpark? Find the distance to fly.

From to 2FA2

Sunrise and sunset
Times for 16-Oct-2021
 Local
(UTC-4)
 Zulu
(UTC)
Morning civil twilight07:0711:07
Sunrise07:3111:31
Sunset18:5722:57
Evening civil twilight19:2123:21

Current date and time
Zulu (UTC)  16-Oct-2021 06:53:54
Local (UTC-4)  16-Oct-2021 02:53:54
 
METAR
KOCF 
10nm NW 
160551Z AUTO 00000KT 10SM CLR 20/19 A2997 RMK AO2 SLP150 T02000194 10256 20200 58000
KINF 
17nm SW 
160635Z AUTO 00000KT 7SM CLR 19/19 A2997 RMK AO2
KLEE 
20nm SE 
160553Z AUTO 00000KT 10SM CLR 23/21 A2997 RMK AO2 SLP147 T02280206 10272 20228 58001
TAF
KLEE 
20nm SE 
160538Z 1606/1706 VRB04KT P6SM SKC FM161400 31004KT P6SM FEW030 FM161700 31006KT P6SM SCT060 FM170000 32004KT P6SM SCT060
NOTAMs
Click for the latest NOTAMs
NOTAMs are issued by the DoD/FAA and will open in a separate window not controlled by AirNav.

 

 
 

Would you like to see your business listed on this page?

 If your business provides an interesting product or service to pilots, flight crews, aircraft, or users of the Monroe Airpark, you should consider listing it here.  To start the listing process, click on the button below
 
Add a business
 

Other Pages about Monroe Airpark

Update a link
 
Copyright © AirNav, LLC. All rights reserved. Privacy Policy  Contact